sensor_id;sensor_type;location;lat;lon;timestamp;P1;durP1;ratioP1;P2;durP2;ratioP2
17283;SDS011;8760;52.248;20.952;2024-02-04T00:02:23;9.00;;;2.40;;
17283;SDS011;8760;52.248;20.952;2024-02-04T00:04:50;5.33;;;2.27;;
17283;SDS011;8760;52.248;20.952;2024-02-04T00:07:18;10.63;;;2.20;;
17283;SDS011;8760;52.248;20.952;2024-02-04T00:09:46;11.53;;;2.30;;
17283;SDS011;8760;52.248;20.952;2024-02-04T00:12:13;8.20;;;2.60;;
17283;SDS011;8760;52.248;20.952;2024-02-04T00:14:40;9.63;;;2.10;;
17283;SDS011;8760;52.248;20.952;2024-02-04T00:17:07;9.97;;;2.10;;
17283;SDS011;8760;52.248;20.952;2024-02-04T00:19:34;9.67;;;1.90;;
17283;SDS011;8760;52.248;20.952;2024-02-04T00:22:01;8.73;;;2.30;;
17283;SDS011;8760;52.248;20.952;2024-02-04T00:24:29;9.23;;;2.07;;
17283;SDS011;8760;52.248;20.952;2024-02-04T00:26:56;12.00;;;3.40;;
17283;SDS011;8760;52.248;20.952;2024-02-04T00:29:23;8.47;;;2.10;;
17283;SDS011;8760;52.248;20.952;2024-02-04T00:31:49;8.83;;;2.37;;
17283;SDS011;8760;52.248;20.952;2024-02-04T00:34:16;11.23;;;2.50;;
17283;SDS011;8760;52.248;20.952;2024-02-04T00:36:43;7.97;;;2.30;;
17283;SDS011;8760;52.248;20.952;2024-02-04T00:39:10;8.70;;;2.23;;
17283;SDS011;8760;52.248;20.952;2024-02-04T00:41:38;9.87;;;2.50;;
17283;SDS011;8760;52.248;20.952;2024-02-04T00:44:05;7.70;;;2.47;;
17283;SDS011;8760;52.248;20.952;2024-02-04T00:46:32;11.40;;;2.80;;
17283;SDS011;8760;52.248;20.952;2024-02-04T00:48:59;8.50;;;2.50;;
17283;SDS011;8760;52.248;20.952;2024-02-04T00:51:26;8.70;;;2.87;;
17283;SDS011;8760;52.248;20.952;2024-02-04T00:53:52;5.83;;;2.20;;
17283;SDS011;8760;52.248;20.952;2024-02-04T00:56:19;10.50;;;2.57;;
17283;SDS011;8760;52.248;20.952;2024-02-04T00:58:47;6.60;;;2.17;;
17283;SDS011;8760;52.248;20.952;2024-02-04T01:01:14;6.70;;;2.53;;
17283;SDS011;8760;52.248;20.952;2024-02-04T01:03:41;12.57;;;2.73;;
17283;SDS011;8760;52.248;20.952;2024-02-04T01:06:08;9.50;;;2.63;;
17283;SDS011;8760;52.248;20.952;2024-02-04T01:08:35;6.87;;;2.33;;
17283;SDS011;8760;52.248;20.952;2024-02-04T01:11:02;10.03;;;2.67;;
17283;SDS011;8760;52.248;20.952;2024-02-04T01:13:30;8.90;;;2.50;;
17283;SDS011;8760;52.248;20.952;2024-02-04T01:15:58;7.70;;;2.60;;
17283;SDS011;8760;52.248;20.952;2024-02-04T01:18:25;9.03;;;2.50;;
17283;SDS011;8760;52.248;20.952;2024-02-04T01:20:52;8.23;;;2.70;;
17283;SDS011;8760;52.248;20.952;2024-02-04T01:23:19;9.47;;;2.70;;
17283;SDS011;8760;52.248;20.952;2024-02-04T01:25:46;8.70;;;2.67;;
17283;SDS011;8760;52.248;20.952;2024-02-04T01:28:12;10.37;;;2.40;;
17283;SDS011;8760;52.248;20.952;2024-02-04T01:30:39;7.60;;;2.60;;
17283;SDS011;8760;52.248;20.952;2024-02-04T01:33:07;8.63;;;3.00;;
17283;SDS011;8760;52.248;20.952;2024-02-04T01:35:34;11.97;;;2.80;;
17283;SDS011;8760;52.248;20.952;2024-02-04T01:38:01;7.37;;;2.50;;
17283;SDS011;8760;52.248;20.952;2024-02-04T01:40:28;7.23;;;2.57;;
17283;SDS011;8760;52.248;20.952;2024-02-04T01:42:55;7.93;;;2.40;;
17283;SDS011;8760;52.248;20.952;2024-02-04T01:45:22;8.43;;;2.87;;
17283;SDS011;8760;52.248;20.952;2024-02-04T01:47:49;8.80;;;2.67;;
17283;SDS011;8760;52.248;20.952;2024-02-04T01:50:19;7.87;;;2.43;;
17283;SDS011;8760;52.248;20.952;2024-02-04T01:52:46;6.53;;;2.33;;
17283;SDS011;8760;52.248;20.952;2024-02-04T01:55:13;10.37;;;2.80;;
17283;SDS011;8760;52.248;20.952;2024-02-04T01:57:40;8.30;;;2.93;;
17283;SDS011;8760;52.248;20.952;2024-02-04T02:00:08;11.47;;;2.90;;
17283;SDS011;8760;52.248;20.952;2024-02-04T02:02:39;6.80;;;2.70;;
17283;SDS011;8760;52.248;20.952;2024-02-04T02:05:07;7.47;;;2.67;;
17283;SDS011;8760;52.248;20.952;2024-02-04T02:07:35;9.07;;;2.80;;
17283;SDS011;8760;52.248;20.952;2024-02-04T02:10:02;9.60;;;2.63;;
17283;SDS011;8760;52.248;20.952;2024-02-04T02:12:33;8.83;;;2.77;;
17283;SDS011;8760;52.248;20.952;2024-02-04T02:15:06;6.73;;;2.50;;
17283;SDS011;8760;52.248;20.952;2024-02-04T02:17:38;8.03;;;2.37;;
17283;SDS011;8760;52.248;20.952;2024-02-04T02:20:15;8.83;;;2.60;;
17283;SDS011;8760;52.248;20.952;2024-02-04T02:22:49;7.53;;;2.47;;
17283;SDS011;8760;52.248;20.952;2024-02-04T02:25:18;6.67;;;2.43;;
17283;SDS011;8760;52.248;20.952;2024-02-04T02:27:47;9.17;;;2.50;;
17283;SDS011;8760;52.248;20.952;2024-02-04T02:30:15;7.93;;;2.70;;
17283;SDS011;8760;52.248;20.952;2024-02-04T02:32:43;10.23;;;2.57;;
17283;SDS011;8760;52.248;20.952;2024-02-04T02:35:12;6.70;;;2.37;;
17283;SDS011;8760;52.248;20.952;2024-02-04T02:37:41;12.60;;;2.70;;
17283;SDS011;8760;52.248;20.952;2024-02-04T02:40:13;9.60;;;2.37;;
17283;SDS011;8760;52.248;20.952;2024-02-04T02:42:46;7.47;;;2.27;;
17283;SDS011;8760;52.248;20.952;2024-02-04T02:45:15;8.57;;;2.27;;
17283;SDS011;8760;52.248;20.952;2024-02-04T02:47:42;6.57;;;2.10;;
17283;SDS011;8760;52.248;20.952;2024-02-04T02:50:12;8.60;;;2.10;;
17283;SDS011;8760;52.248;20.952;2024-02-04T02:52:39;11.50;;;2.50;;
17283;SDS011;8760;52.248;20.952;2024-02-04T02:55:06;10.27;;;2.73;;
17283;SDS011;8760;52.248;20.952;2024-02-04T02:57:33;10.37;;;2.20;;
17283;SDS011;8760;52.248;20.952;2024-02-04T03:00:02;10.30;;;2.73;;
17283;SDS011;8760;52.248;20.952;2024-02-04T03:02:30;9.83;;;2.80;;
17283;SDS011;8760;52.248;20.952;2024-02-04T03:04:57;7.37;;;2.20;;
17283;SDS011;8760;52.248;20.952;2024-02-04T03:07:24;9.90;;;2.50;;
17283;SDS011;8760;52.248;20.952;2024-02-04T03:09:52;7.13;;;2.30;;
17283;SDS011;8760;52.248;20.952;2024-02-04T03:12:19;8.83;;;2.63;;
17283;SDS011;8760;52.248;20.952;2024-02-04T03:14:46;10.50;;;2.50;;
17283;SDS011;8760;52.248;20.952;2024-02-04T03:17:14;6.50;;;1.97;;
17283;SDS011;8760;52.248;20.952;2024-02-04T03:19:45;6.80;;;2.10;;
17283;SDS011;8760;52.248;20.952;2024-02-04T03:22:13;12.23;;;2.33;;
17283;SDS011;8760;52.248;20.952;2024-02-04T03:24:39;8.77;;;1.90;;
17283;SDS011;8760;52.248;20.952;2024-02-04T03:27:06;8.67;;;2.13;;
17283;SDS011;8760;52.248;20.952;2024-02-04T03:29:33;8.90;;;2.20;;
17283;SDS011;8760;52.248;20.952;2024-02-04T03:32:00;9.13;;;2.10;;
17283;SDS011;8760;52.248;20.952;2024-02-04T03:34:28;11.43;;;2.00;;
17283;SDS011;8760;52.248;20.952;2024-02-04T03:36:55;11.73;;;1.87;;
17283;SDS011;8760;52.248;20.952;2024-02-04T03:39:22;7.30;;;1.90;;
17283;SDS011;8760;52.248;20.952;2024-02-04T03:41:49;9.03;;;2.30;;
17283;SDS011;8760;52.248;20.952;2024-02-04T03:44:16;9.07;;;1.87;;
17283;SDS011;8760;52.248;20.952;2024-02-04T03:46:43;8.43;;;2.10;;
17283;SDS011;8760;52.248;20.952;2024-02-04T03:49:10;10.60;;;2.30;;
17283;SDS011;8760;52.248;20.952;2024-02-04T03:51:38;9.63;;;2.37;;
17283;SDS011;8760;52.248;20.952;2024-02-04T03:54:05;7.73;;;2.17;;
17283;SDS011;8760;52.248;20.952;2024-02-04T03:56:32;9.37;;;2.50;;
17283;SDS011;8760;52.248;20.952;2024-02-04T03:58:58;10.13;;;2.30;;
17283;SDS011;8760;52.248;20.952;2024-02-04T04:01:25;8.60;;;2.27;;
17283;SDS011;8760;52.248;20.952;2024-02-04T04:03:52;8.53;;;2.37;;
17283;SDS011;8760;52.248;20.952;2024-02-04T04:06:19;6.87;;;1.90;;
17283;SDS011;8760;52.248;20.952;2024-02-04T04:08:47;6.63;;;2.17;;
17283;SDS011;8760;52.248;20.952;2024-02-04T04:11:14;5.30;;;1.63;;
17283;SDS011;8760;52.248;20.952;2024-02-04T04:13:41;5.67;;;2.20;;
17283;SDS011;8760;52.248;20.952;2024-02-04T04:16:07;13.77;;;1.93;;
17283;SDS011;8760;52.248;20.952;2024-02-04T04:18:34;8.43;;;2.53;;
17283;SDS011;8760;52.248;20.952;2024-02-04T04:21:07;9.13;;;2.57;;
17283;SDS011;8760;52.248;20.952;2024-02-04T04:23:34;11.47;;;2.73;;
17283;SDS011;8760;52.248;20.952;2024-02-04T04:26:02;6.77;;;2.23;;
17283;SDS011;8760;52.248;20.952;2024-02-04T04:28:29;7.47;;;2.00;;
17283;SDS011;8760;52.248;20.952;2024-02-04T04:30:56;5.20;;;2.07;;
17283;SDS011;8760;52.248;20.952;2024-02-04T04:33:23;7.37;;;2.10;;
17283;SDS011;8760;52.248;20.952;2024-02-04T04:35:49;9.70;;;2.10;;
17283;SDS011;8760;52.248;20.952;2024-02-04T04:38:16;7.47;;;2.17;;
17283;SDS011;8760;52.248;20.952;2024-02-04T04:40:43;5.43;;;1.60;;
17283;SDS011;8760;52.248;20.952;2024-02-04T04:43:11;8.10;;;1.60;;
17283;SDS011;8760;52.248;20.952;2024-02-04T04:45:38;3.90;;;1.20;;
17283;SDS011;8760;52.248;20.952;2024-02-04T04:48:06;5.60;;;1.33;;
17283;SDS011;8760;52.248;20.952;2024-02-04T04:50:34;2.77;;;1.20;;
17283;SDS011;8760;52.248;20.952;2024-02-04T04:53:00;4.73;;;1.60;;
17283;SDS011;8760;52.248;20.952;2024-02-04T04:55:27;5.97;;;1.53;;
17283;SDS011;8760;52.248;20.952;2024-02-04T04:57:54;5.83;;;1.53;;
17283;SDS011;8760;52.248;20.952;2024-02-04T05:00:22;3.07;;;1.10;;
17283;SDS011;8760;52.248;20.952;2024-02-04T05:02:49;7.23;;;1.80;;
17283;SDS011;8760;52.248;20.952;2024-02-04T05:05:16;7.33;;;2.07;;
17283;SDS011;8760;52.248;20.952;2024-02-04T05:07:43;6.23;;;1.80;;
17283;SDS011;8760;52.248;20.952;2024-02-04T05:10:11;8.80;;;2.00;;
17283;SDS011;8760;52.248;20.952;2024-02-04T05:12:38;5.73;;;1.60;;
17283;SDS011;8760;52.248;20.952;2024-02-04T05:15:05;4.50;;;1.70;;
17283;SDS011;8760;52.248;20.952;2024-02-04T05:17:34;6.37;;;1.50;;
17283;SDS011;8760;52.248;20.952;2024-02-04T05:20:01;4.90;;;1.63;;
17283;SDS011;8760;52.248;20.952;2024-02-04T05:22:29;5.67;;;1.30;;
17283;SDS011;8760;52.248;20.952;2024-02-04T05:24:56;2.57;;;1.13;;
17283;SDS011;8760;52.248;20.952;2024-02-04T05:27:23;4.63;;;1.30;;
17283;SDS011;8760;52.248;20.952;2024-02-04T05:29:49;6.67;;;1.83;;
17283;SDS011;8760;52.248;20.952;2024-02-04T05:32:16;5.77;;;1.60;;
17283;SDS011;8760;52.248;20.952;2024-02-04T05:34:44;4.30;;;1.53;;
17283;SDS011;8760;52.248;20.952;2024-02-04T05:37:11;6.03;;;1.30;;
17283;SDS011;8760;52.248;20.952;2024-02-04T05:39:38;3.30;;;1.40;;
17283;SDS011;8760;52.248;20.952;2024-02-04T05:42:05;6.90;;;1.70;;
17283;SDS011;8760;52.248;20.952;2024-02-04T05:44:32;7.97;;;1.97;;
17283;SDS011;8760;52.248;20.952;2024-02-04T05:46:58;7.77;;;2.10;;
17283;SDS011;8760;52.248;20.952;2024-02-04T05:49:25;5.50;;;2.10;;
17283;SDS011;8760;52.248;20.952;2024-02-04T05:51:53;5.17;;;1.50;;
17283;SDS011;8760;52.248;20.952;2024-02-04T05:54:20;7.67;;;2.23;;
17283;SDS011;8760;52.248;20.952;2024-02-04T05:56:47;7.57;;;1.90;;
17283;SDS011;8760;52.248;20.952;2024-02-04T05:59:14;6.13;;;1.77;;
17283;SDS011;8760;52.248;20.952;2024-02-04T06:01:42;10.23;;;1.87;;
17283;SDS011;8760;52.248;20.952;2024-02-04T06:04:09;5.67;;;2.23;;
17283;SDS011;8760;52.248;20.952;2024-02-04T06:06:36;8.20;;;2.33;;
17283;SDS011;8760;52.248;20.952;2024-02-04T06:09:04;8.33;;;2.10;;
17283;SDS011;8760;52.248;20.952;2024-02-04T06:11:33;9.33;;;2.10;;
17283;SDS011;8760;52.248;20.952;2024-02-04T06:14:00;7.63;;;2.33;;
17283;SDS011;8760;52.248;20.952;2024-02-04T06:16:27;8.60;;;2.60;;
17283;SDS011;8760;52.248;20.952;2024-02-04T06:18:54;8.57;;;2.30;;
17283;SDS011;8760;52.248;20.952;2024-02-04T06:21:23;15.17;;;6.90;;
17283;SDS011;8760;52.248;20.952;2024-02-04T06:23:50;7.40;;;2.20;;
17283;SDS011;8760;52.248;20.952;2024-02-04T06:26:18;6.73;;;2.20;;
17283;SDS011;8760;52.248;20.952;2024-02-04T06:28:45;9.13;;;2.10;;
17283;SDS011;8760;52.248;20.952;2024-02-04T06:31:13;7.23;;;2.00;;
17283;SDS011;8760;52.248;20.952;2024-02-04T06:33:40;8.33;;;2.30;;
17283;SDS011;8760;52.248;20.952;2024-02-04T06:36:08;8.50;;;2.53;;
17283;SDS011;8760;52.248;20.952;2024-02-04T06:38:35;10.37;;;2.70;;
17283;SDS011;8760;52.248;20.952;2024-02-04T06:41:02;10.57;;;2.70;;
17283;SDS011;8760;52.248;20.952;2024-02-04T06:43:31;9.93;;;2.60;;
17283;SDS011;8760;52.248;20.952;2024-02-04T06:45:57;9.80;;;2.63;;
17283;SDS011;8760;52.248;20.952;2024-02-04T06:48:24;8.10;;;2.43;;
17283;SDS011;8760;52.248;20.952;2024-02-04T06:50:51;13.23;;;2.57;;
17283;SDS011;8760;52.248;20.952;2024-02-04T06:53:18;11.40;;;2.60;;
17283;SDS011;8760;52.248;20.952;2024-02-04T06:55:45;12.57;;;2.83;;
17283;SDS011;8760;52.248;20.952;2024-02-04T06:58:12;7.40;;;2.53;;
17283;SDS011;8760;52.248;20.952;2024-02-04T07:00:40;6.63;;;1.97;;
17283;SDS011;8760;52.248;20.952;2024-02-04T07:03:07;9.10;;;2.63;;
17283;SDS011;8760;52.248;20.952;2024-02-04T07:05:34;11.50;;;2.90;;
17283;SDS011;8760;52.248;20.952;2024-02-04T07:08:02;10.97;;;2.67;;
17283;SDS011;8760;52.248;20.952;2024-02-04T07:10:29;14.00;;;2.60;;
17283;SDS011;8760;52.248;20.952;2024-02-04T07:12:55;7.03;;;2.07;;
17283;SDS011;8760;52.248;20.952;2024-02-04T07:15:22;9.03;;;2.90;;
17283;SDS011;8760;52.248;20.952;2024-02-04T07:17:51;8.73;;;2.30;;
17283;SDS011;8760;52.248;20.952;2024-02-04T07:20:17;9.73;;;2.17;;
17283;SDS011;8760;52.248;20.952;2024-02-04T07:22:45;9.13;;;2.60;;
17283;SDS011;8760;52.248;20.952;2024-02-04T07:25:11;14.97;;;3.23;;
17283;SDS011;8760;52.248;20.952;2024-02-04T07:27:38;6.80;;;2.33;;
17283;SDS011;8760;52.248;20.952;2024-02-04T07:30:06;10.23;;;2.40;;
17283;SDS011;8760;52.248;20.952;2024-02-04T07:32:33;12.00;;;2.40;;
17283;SDS011;8760;52.248;20.952;2024-02-04T07:35:03;12.07;;;2.70;;
17283;SDS011;8760;52.248;20.952;2024-02-04T07:37:31;12.00;;;2.83;;
17283;SDS011;8760;52.248;20.952;2024-02-04T07:39:58;10.07;;;2.60;;
17283;SDS011;8760;52.248;20.952;2024-02-04T07:42:26;8.57;;;2.20;;
17283;SDS011;8760;52.248;20.952;2024-02-04T07:44:53;8.27;;;2.43;;
17283;SDS011;8760;52.248;20.952;2024-02-04T07:47:20;7.50;;;2.53;;
17283;SDS011;8760;52.248;20.952;2024-02-04T07:49:46;9.67;;;2.80;;
17283;SDS011;8760;52.248;20.952;2024-02-04T07:52:15;11.07;;;2.80;;
17283;SDS011;8760;52.248;20.952;2024-02-04T07:54:42;8.03;;;2.40;;
17283;SDS011;8760;52.248;20.952;2024-02-04T07:57:09;9.80;;;3.00;;
17283;SDS011;8760;52.248;20.952;2024-02-04T07:59:36;12.13;;;2.27;;
17283;SDS011;8760;52.248;20.952;2024-02-04T08:02:03;10.67;;;2.30;;
17283;SDS011;8760;52.248;20.952;2024-02-04T08:04:33;5.40;;;2.20;;
17283;SDS011;8760;52.248;20.952;2024-02-04T08:06:59;8.60;;;2.03;;
17283;SDS011;8760;52.248;20.952;2024-02-04T08:09:28;8.57;;;2.47;;
17283;SDS011;8760;52.248;20.952;2024-02-04T08:11:54;8.20;;;2.60;;
17283;SDS011;8760;52.248;20.952;2024-02-04T08:14:21;7.70;;;2.30;;
17283;SDS011;8760;52.248;20.952;2024-02-04T08:16:48;8.33;;;2.40;;
17283;SDS011;8760;52.248;20.952;2024-02-04T08:19:15;10.63;;;2.33;;
17283;SDS011;8760;52.248;20.952;2024-02-04T08:21:42;9.83;;;2.70;;
17283;SDS011;8760;52.248;20.952;2024-02-04T08:24:09;7.20;;;2.33;;
17283;SDS011;8760;52.248;20.952;2024-02-04T08:26:37;9.87;;;2.53;;
17283;SDS011;8760;52.248;20.952;2024-02-04T08:29:04;10.20;;;2.50;;
17283;SDS011;8760;52.248;20.952;2024-02-04T08:31:31;10.20;;;2.90;;
17283;SDS011;8760;52.248;20.952;2024-02-04T08:33:59;12.47;;;3.03;;
17283;SDS011;8760;52.248;20.952;2024-02-04T08:36:26;10.90;;;2.50;;
17283;SDS011;8760;52.248;20.952;2024-02-04T08:38:53;9.57;;;2.87;;
17283;SDS011;8760;52.248;20.952;2024-02-04T08:41:20;9.83;;;3.07;;
17283;SDS011;8760;52.248;20.952;2024-02-04T08:43:48;11.80;;;2.50;;
17283;SDS011;8760;52.248;20.952;2024-02-04T08:46:15;9.60;;;2.80;;
17283;SDS011;8760;52.248;20.952;2024-02-04T08:48:41;13.43;;;2.53;;
17283;SDS011;8760;52.248;20.952;2024-02-04T08:51:10;9.97;;;2.57;;
17283;SDS011;8760;52.248;20.952;2024-02-04T08:53:38;10.30;;;3.10;;
17283;SDS011;8760;52.248;20.952;2024-02-04T08:56:05;9.27;;;3.13;;
17283;SDS011;8760;52.248;20.952;2024-02-04T08:58:33;10.03;;;2.90;;
17283;SDS011;8760;52.248;20.952;2024-02-04T09:01:03;7.67;;;2.53;;
17283;SDS011;8760;52.248;20.952;2024-02-04T09:03:30;7.43;;;2.53;;
17283;SDS011;8760;52.248;20.952;2024-02-04T09:05:57;11.47;;;3.10;;
17283;SDS011;8760;52.248;20.952;2024-02-04T09:08:25;9.50;;;2.40;;
17283;SDS011;8760;52.248;20.952;2024-02-04T09:10:51;11.23;;;2.93;;
17283;SDS011;8760;52.248;20.952;2024-02-04T09:13:18;9.73;;;2.80;;
17283;SDS011;8760;52.248;20.952;2024-02-04T09:15:45;12.40;;;2.90;;
17283;SDS011;8760;52.248;20.952;2024-02-04T09:18:14;11.73;;;2.50;;
17283;SDS011;8760;52.248;20.952;2024-02-04T09:20:41;11.53;;;2.97;;
17283;SDS011;8760;52.248;20.952;2024-02-04T09:23:08;9.20;;;2.47;;
17283;SDS011;8760;52.248;20.952;2024-02-04T09:25:34;7.93;;;2.60;;
17283;SDS011;8760;52.248;20.952;2024-02-04T09:28:01;11.47;;;3.00;;
17283;SDS011;8760;52.248;20.952;2024-02-04T09:30:28;10.33;;;3.07;;
17283;SDS011;8760;52.248;20.952;2024-02-04T09:32:56;10.67;;;3.37;;
17283;SDS011;8760;52.248;20.952;2024-02-04T09:35:24;8.37;;;2.83;;
17283;SDS011;8760;52.248;20.952;2024-02-04T09:37:51;14.13;;;3.07;;
17283;SDS011;8760;52.248;20.952;2024-02-04T09:40:18;12.77;;;2.80;;
17283;SDS011;8760;52.248;20.952;2024-02-04T09:42:45;10.90;;;2.63;;
17283;SDS011;8760;52.248;20.952;2024-02-04T09:45:12;9.10;;;2.90;;
17283;SDS011;8760;52.248;20.952;2024-02-04T09:47:42;11.93;;;2.47;;
17283;SDS011;8760;52.248;20.952;2024-02-04T09:50:11;13.03;;;3.03;;
17283;SDS011;8760;52.248;20.952;2024-02-04T09:52:40;10.47;;;2.97;;
17283;SDS011;8760;52.248;20.952;2024-02-04T09:55:10;14.07;;;3.70;;
17283;SDS011;8760;52.248;20.952;2024-02-04T09:57:40;9.17;;;3.33;;
17283;SDS011;8760;52.248;20.952;2024-02-04T10:00:08;10.37;;;3.10;;
17283;SDS011;8760;52.248;20.952;2024-02-04T10:02:36;10.37;;;3.03;;
17283;SDS011;8760;52.248;20.952;2024-02-04T10:05:03;14.70;;;3.30;;
17283;SDS011;8760;52.248;20.952;2024-02-04T10:07:30;10.73;;;2.90;;
17283;SDS011;8760;52.248;20.952;2024-02-04T10:09:58;9.83;;;2.80;;
17283;SDS011;8760;52.248;20.952;2024-02-04T10:12:25;12.00;;;3.13;;
17283;SDS011;8760;52.248;20.952;2024-02-04T10:14:52;9.57;;;2.83;;
17283;SDS011;8760;52.248;20.952;2024-02-04T10:17:19;11.40;;;3.13;;
17283;SDS011;8760;52.248;20.952;2024-02-04T10:19:46;9.67;;;2.60;;
17283;SDS011;8760;52.248;20.952;2024-02-04T10:22:13;15.07;;;3.07;;
17283;SDS011;8760;52.248;20.952;2024-02-04T10:24:41;13.07;;;3.50;;
17283;SDS011;8760;52.248;20.952;2024-02-04T10:27:11;11.67;;;4.27;;
17283;SDS011;8760;52.248;20.952;2024-02-04T10:29:38;10.90;;;3.20;;
17283;SDS011;8760;52.248;20.952;2024-02-04T10:32:05;13.57;;;2.97;;
17283;SDS011;8760;52.248;20.952;2024-02-04T10:34:35;9.37;;;2.83;;
17283;SDS011;8760;52.248;20.952;2024-02-04T10:37:03;12.07;;;3.60;;
17283;SDS011;8760;52.248;20.952;2024-02-04T10:39:30;12.43;;;2.97;;
17283;SDS011;8760;52.248;20.952;2024-02-04T10:41:59;15.57;;;3.43;;
17283;SDS011;8760;52.248;20.952;2024-02-04T10:44:31;11.80;;;3.30;;
17283;SDS011;8760;52.248;20.952;2024-02-04T10:47:03;9.23;;;3.30;;
17283;SDS011;8760;52.248;20.952;2024-02-04T10:49:33;10.17;;;3.50;;
17283;SDS011;8760;52.248;20.952;2024-02-04T10:52:03;10.67;;;2.97;;
17283;SDS011;8760;52.248;20.952;2024-02-04T10:54:33;15.30;;;3.30;;
17283;SDS011;8760;52.248;20.952;2024-02-04T10:57:02;16.50;;;3.90;;
17283;SDS011;8760;52.248;20.952;2024-02-04T10:59:35;12.87;;;3.20;;
17283;SDS011;8760;52.248;20.952;2024-02-04T11:02:03;11.00;;;2.80;;
17283;SDS011;8760;52.248;20.952;2024-02-04T11:04:32;10.00;;;2.87;;
17283;SDS011;8760;52.248;20.952;2024-02-04T11:07:00;8.70;;;2.80;;
17283;SDS011;8760;52.248;20.952;2024-02-04T11:09:29;12.30;;;3.13;;
17283;SDS011;8760;52.248;20.952;2024-02-04T11:11:57;9.53;;;3.10;;
17283;SDS011;8760;52.248;20.952;2024-02-04T11:14:26;10.90;;;3.30;;
17283;SDS011;8760;52.248;20.952;2024-02-04T11:16:59;9.63;;;3.43;;
17283;SDS011;8760;52.248;20.952;2024-02-04T11:19:52;7.43;;;2.60;;
17283;SDS011;8760;52.248;20.952;2024-02-04T11:22:36;9.73;;;2.50;;
17283;SDS011;8760;52.248;20.952;2024-02-04T11:25:21;15.97;;;3.10;;
17283;SDS011;8760;52.248;20.952;2024-02-04T11:28:20;8.80;;;2.80;;
17283;SDS011;8760;52.248;20.952;2024-02-04T11:30:50;11.73;;;3.03;;
17283;SDS011;8760;52.248;20.952;2024-02-04T11:33:20;13.17;;;3.07;;
17283;SDS011;8760;52.248;20.952;2024-02-04T11:35:57;14.70;;;3.50;;
17283;SDS011;8760;52.248;20.952;2024-02-04T11:38:29;8.33;;;2.90;;
17283;SDS011;8760;52.248;20.952;2024-02-04T11:41:02;10.83;;;3.40;;
17283;SDS011;8760;52.248;20.952;2024-02-04T11:43:31;12.13;;;3.40;;
17283;SDS011;8760;52.248;20.952;2024-02-04T11:45:59;12.13;;;3.43;;
17283;SDS011;8760;52.248;20.952;2024-02-04T11:48:30;13.93;;;4.20;;
17283;SDS011;8760;52.248;20.952;2024-02-04T11:50:58;10.53;;;3.30;;
17283;SDS011;8760;52.248;20.952;2024-02-04T11:53:26;13.33;;;3.53;;
17283;SDS011;8760;52.248;20.952;2024-02-04T11:55:57;12.30;;;3.73;;
17283;SDS011;8760;52.248;20.952;2024-02-04T11:58:25;12.63;;;3.37;;
17283;SDS011;8760;52.248;20.952;2024-02-04T12:00:52;10.80;;;3.67;;
17283;SDS011;8760;52.248;20.952;2024-02-04T12:03:29;13.50;;;3.43;;
17283;SDS011;8760;52.248;20.952;2024-02-04T12:05:56;10.47;;;3.67;;
17283;SDS011;8760;52.248;20.952;2024-02-04T12:08:23;11.50;;;3.60;;
17283;SDS011;8760;52.248;20.952;2024-02-04T12:10:52;11.40;;;3.77;;
17283;SDS011;8760;52.248;20.952;2024-02-04T12:13:19;11.90;;;3.40;;
17283;SDS011;8760;52.248;20.952;2024-02-04T12:15:46;11.33;;;3.90;;
17283;SDS011;8760;52.248;20.952;2024-02-04T12:18:13;9.73;;;3.30;;
17283;SDS011;8760;52.248;20.952;2024-02-04T12:20:46;10.00;;;3.50;;
17283;SDS011;8760;52.248;20.952;2024-02-04T12:23:14;12.17;;;3.70;;
17283;SDS011;8760;52.248;20.952;2024-02-04T12:25:41;10.23;;;3.53;;
17283;SDS011;8760;52.248;20.952;2024-02-04T12:28:08;11.73;;;3.30;;
17283;SDS011;8760;52.248;20.952;2024-02-04T12:30:35;10.97;;;3.17;;
17283;SDS011;8760;52.248;20.952;2024-02-04T12:33:03;10.87;;;4.07;;
17283;SDS011;8760;52.248;20.952;2024-02-04T12:35:31;8.43;;;3.37;;
17283;SDS011;8760;52.248;20.952;2024-02-04T12:38:00;14.10;;;3.87;;
17283;SDS011;8760;52.248;20.952;2024-02-04T12:40:28;11.70;;;3.90;;
17283;SDS011;8760;52.248;20.952;2024-02-04T12:42:56;13.07;;;3.60;;
17283;SDS011;8760;52.248;20.952;2024-02-04T12:45:24;12.73;;;3.87;;
17283;SDS011;8760;52.248;20.952;2024-02-04T12:47:52;8.10;;;3.43;;
17283;SDS011;8760;52.248;20.952;2024-02-04T12:50:19;11.40;;;3.67;;
17283;SDS011;8760;52.248;20.952;2024-02-04T12:52:47;10.20;;;3.60;;
17283;SDS011;8760;52.248;20.952;2024-02-04T12:55:26;12.33;;;3.50;;
17283;SDS011;8760;52.248;20.952;2024-02-04T12:58:01;10.80;;;3.40;;
17283;SDS011;8760;52.248;20.952;2024-02-04T13:00:29;13.50;;;3.90;;
17283;SDS011;8760;52.248;20.952;2024-02-04T13:02:56;9.03;;;3.60;;
17283;SDS011;8760;52.248;20.952;2024-02-04T13:05:23;10.33;;;3.87;;
17283;SDS011;8760;52.248;20.952;2024-02-04T13:07:51;10.43;;;3.80;;
17283;SDS011;8760;52.248;20.952;2024-02-04T13:10:20;14.00;;;3.40;;
17283;SDS011;8760;52.248;20.952;2024-02-04T13:12:58;10.70;;;3.87;;
17283;SDS011;8760;52.248;20.952;2024-02-04T13:15:26;10.97;;;4.23;;
17283;SDS011;8760;52.248;20.952;2024-02-04T13:17:53;12.33;;;3.80;;
17283;SDS011;8760;52.248;20.952;2024-02-04T13:20:20;9.60;;;3.70;;
17283;SDS011;8760;52.248;20.952;2024-02-04T13:22:48;14.27;;;4.07;;
17283;SDS011;8760;52.248;20.952;2024-02-04T13:25:15;10.07;;;3.63;;
17283;SDS011;8760;52.248;20.952;2024-02-04T13:27:41;10.27;;;3.60;;
17283;SDS011;8760;52.248;20.952;2024-02-04T13:30:10;14.40;;;7.47;;
17283;SDS011;8760;52.248;20.952;2024-02-04T13:32:38;10.20;;;3.73;;
17283;SDS011;8760;52.248;20.952;2024-02-04T13:35:05;8.97;;;3.53;;
17283;SDS011;8760;52.248;20.952;2024-02-04T13:37:33;6.93;;;2.83;;
17283;SDS011;8760;52.248;20.952;2024-02-04T13:40:02;8.43;;;2.97;;
17283;SDS011;8760;52.248;20.952;2024-02-04T13:42:29;11.23;;;3.23;;
17283;SDS011;8760;52.248;20.952;2024-02-04T13:44:58;10.60;;;3.50;;
17283;SDS011;8760;52.248;20.952;2024-02-04T13:47:27;10.07;;;3.77;;
17283;SDS011;8760;52.248;20.952;2024-02-04T13:49:54;9.40;;;3.80;;
17283;SDS011;8760;52.248;20.952;2024-02-04T13:52:21;9.33;;;3.07;;
17283;SDS011;8760;52.248;20.952;2024-02-04T13:54:48;11.53;;;3.27;;
17283;SDS011;8760;52.248;20.952;2024-02-04T13:57:15;10.73;;;3.20;;
17283;SDS011;8760;52.248;20.952;2024-02-04T13:59:42;8.13;;;2.87;;
17283;SDS011;8760;52.248;20.952;2024-02-04T14:02:09;7.47;;;2.73;;
17283;SDS011;8760;52.248;20.952;2024-02-04T14:04:37;9.27;;;2.87;;
17283;SDS011;8760;52.248;20.952;2024-02-04T14:07:04;8.50;;;3.13;;
17283;SDS011;8760;52.248;20.952;2024-02-04T14:09:31;9.07;;;3.57;;
17283;SDS011;8760;52.248;20.952;2024-02-04T14:11:58;8.10;;;2.70;;
17283;SDS011;8760;52.248;20.952;2024-02-04T14:14:24;7.73;;;2.97;;
17283;SDS011;8760;52.248;20.952;2024-02-04T14:16:51;5.47;;;2.30;;
17283;SDS011;8760;52.248;20.952;2024-02-04T14:19:19;10.90;;;2.87;;
17283;SDS011;8760;52.248;20.952;2024-02-04T14:21:47;6.90;;;2.47;;
17283;SDS011;8760;52.248;20.952;2024-02-04T14:24:14;6.00;;;2.67;;
17283;SDS011;8760;52.248;20.952;2024-02-04T14:26:40;8.40;;;3.10;;
17283;SDS011;8760;52.248;20.952;2024-02-04T14:29:08;9.33;;;3.40;;
17283;SDS011;8760;52.248;20.952;2024-02-04T14:31:35;8.67;;;3.07;;
17283;SDS011;8760;52.248;20.952;2024-02-04T14:34:02;9.93;;;3.27;;
17283;SDS011;8760;52.248;20.952;2024-02-04T14:36:29;8.00;;;3.10;;
17283;SDS011;8760;52.248;20.952;2024-02-04T14:38:57;5.53;;;2.70;;
17283;SDS011;8760;52.248;20.952;2024-02-04T14:41:25;8.00;;;2.83;;
17283;SDS011;8760;52.248;20.952;2024-02-04T14:43:52;9.07;;;2.97;;
17283;SDS011;8760;52.248;20.952;2024-02-04T14:46:18;7.53;;;3.10;;
17283;SDS011;8760;52.248;20.952;2024-02-04T14:48:45;5.33;;;2.70;;